createdAt,value
2023-05-25T00:01:35.644Z,14.32
2023-05-25T00:06:42.983Z,14.28
2023-05-25T00:11:45.575Z,14.27
2023-05-25T00:16:51.632Z,14.25
2023-05-25T00:21:54.765Z,14.25
2023-05-25T00:27:01.237Z,14.25
2023-05-25T00:32:06.726Z,14.25
2023-05-25T00:37:09.035Z,14.25
2023-05-25T00:42:24.554Z,14.25
2023-05-25T00:47:27.654Z,14.25
2023-05-25T00:52:30.049Z,14.24
2023-05-25T00:57:57.357Z,14.27
2023-05-25T01:03:14.722Z,14.28
2023-05-25T01:08:28.693Z,14.27
2023-05-25T01:13:34.459Z,14.27
2023-05-25T01:18:39.943Z,14.30
2023-05-25T01:23:54.220Z,14.31
2023-05-25T01:29:01.954Z,14.32
2023-05-25T01:34:09.629Z,14.34
2023-05-25T01:39:12.798Z,14.33
2023-05-25T01:44:19.335Z,14.29
2023-05-25T01:49:52.408Z,14.23
2023-05-25T01:55:06.452Z,14.18
2023-05-25T02:00:21.702Z,14.13
2023-05-25T02:05:23.870Z,14.10
2023-05-25T02:10:26.232Z,14.06
2023-05-25T02:15:34.098Z,14.06
2023-05-25T02:20:37.786Z,14.07
2023-05-25T02:25:39.816Z,14.07
2023-05-25T02:30:42.030Z,14.05
2023-05-25T02:35:47.147Z,14.02
2023-05-25T02:40:58.572Z,14.01
2023-05-25T02:46:09.812Z,13.99
2023-05-25T02:51:15.210Z,13.97
2023-05-25T02:56:31.404Z,13.90
2023-05-25T03:06:51.810Z,13.92
2023-05-25T03:12:03.522Z,13.89
2023-05-25T03:17:07.835Z,13.90
2023-05-25T03:22:19.043Z,13.93
2023-05-25T03:27:21.450Z,13.92
2023-05-25T03:32:25.267Z,13.90
2023-05-25T03:37:31.101Z,13.89
2023-05-25T03:42:37.480Z,13.87
2023-05-25T03:47:40.797Z,13.88
2023-05-25T03:52:43.829Z,13.86
2023-05-25T03:57:45.992Z,13.82
2023-05-25T04:02:48.568Z,13.72
2023-05-25T04:07:52.234Z,13.62
2023-05-25T04:12:57.512Z,13.57
2023-05-25T04:18:03.040Z,13.54
2023-05-25T04:23:06.331Z,13.53
2023-05-25T04:28:09.353Z,13.55
2023-05-25T04:33:22.123Z,13.58
2023-05-25T04:38:35.507Z,13.58
2023-05-25T04:43:40.428Z,13.54
2023-05-25T04:48:48.536Z,13.57
2023-05-25T04:53:51.310Z,13.55
2023-05-25T04:58:54.166Z,13.48
2023-05-25T05:03:59.834Z,13.44
2023-05-25T05:09:03.292Z,13.41
2023-05-25T05:14:08.630Z,13.43
2023-05-25T05:19:11.860Z,13.45
2023-05-25T05:24:16.446Z,13.46
2023-05-25T05:29:19.984Z,13.57
2023-05-25T05:34:22.997Z,13.56
2023-05-25T05:39:27.379Z,13.54
2023-05-25T05:44:30.948Z,13.50
2023-05-25T05:49:35.045Z,13.51
2023-05-25T05:54:38.668Z,13.54
2023-05-25T05:59:55.884Z,13.67
2023-05-25T06:04:58.375Z,13.69
2023-05-25T06:10:01.097Z,13.70
2023-05-25T06:15:03.723Z,13.70
2023-05-25T06:20:11.150Z,13.65
2023-05-25T06:25:40.457Z,13.61
2023-05-25T06:30:43.775Z,13.51
2023-05-25T06:35:52.761Z,13.45
2023-05-25T06:41:02.666Z,13.41
2023-05-25T06:46:05.109Z,13.47
2023-05-25T06:51:17.084Z,13.52
2023-05-25T06:56:20.056Z,13.60
2023-05-25T07:01:25.789Z,13.74
2023-05-25T07:06:28.157Z,13.87
2023-05-25T07:11:30.218Z,13.93
2023-05-25T07:16:33.252Z,14.02
2023-05-25T07:21:37.270Z,13.99
2023-05-25T07:26:50.680Z,13.99
2023-05-25T07:31:52.696Z,14.00
2023-05-25T07:37:33.457Z,14.03
2023-05-25T07:42:36.751Z,14.13
2023-05-25T07:47:41.943Z,14.17
2023-05-25T07:52:45.266Z,14.21
2023-05-25T07:57:47.434Z,14.26
2023-05-25T08:02:53.326Z,14.30
2023-05-25T08:07:56.323Z,14.39
2023-05-25T08:12:59.208Z,14.56
2023-05-25T08:18:06.665Z,14.58
2023-05-25T08:23:09.690Z,14.70
2023-05-25T08:28:11.738Z,14.72
2023-05-25T08:33:15.065Z,14.80
2023-05-25T08:38:17.108Z,14.96
2023-05-25T08:43:28.704Z,15.14
2023-05-25T08:48:41.168Z,15.29
2023-05-25T08:53:45.360Z,15.44
2023-05-25T08:59:16.882Z,15.48
2023-05-25T09:04:21.188Z,15.54
2023-05-25T09:09:23.810Z,15.55
2023-05-25T09:14:28.422Z,15.54
2023-05-25T09:19:30.547Z,15.53
2023-05-25T09:24:36.980Z,15.70
2023-05-25T09:29:49.534Z,15.83
2023-05-25T09:34:51.803Z,16.04
2023-05-25T09:39:53.748Z,16.21
2023-05-25T09:44:55.714Z,16.35
2023-05-25T09:50:00.155Z,16.51
2023-05-25T09:55:10.478Z,16.62
2023-05-25T10:00:13.245Z,16.65
2023-05-25T10:05:16.049Z,16.58
2023-05-25T10:10:19.253Z,16.58
2023-05-25T10:15:22.427Z,16.64
2023-05-25T10:20:29.631Z,16.62
2023-05-25T10:26:09.527Z,16.77
2023-05-25T10:31:18.774Z,16.96
2023-05-25T10:36:41.233Z,17.13
2023-05-25T10:41:46.150Z,17.20
2023-05-25T10:46:55.671Z,17.32
2023-05-25T10:51:59.854Z,17.43
2023-05-25T10:57:16.145Z,17.37
2023-05-25T11:02:23.766Z,17.38
2023-05-25T11:07:26.099Z,17.45
2023-05-25T11:12:28.509Z,17.52
2023-05-25T11:17:32.879Z,17.54
2023-05-25T11:22:37.388Z,17.69
2023-05-25T11:27:47.372Z,17.69
2023-05-25T11:32:50.918Z,17.68
2023-05-25T11:37:55.430Z,17.48
2023-05-25T11:43:00.817Z,17.26
2023-05-25T11:48:05.176Z,17.14
2023-05-25T11:53:07.377Z,17.00
2023-05-25T11:58:09.800Z,16.88
2023-05-25T12:03:33.184Z,16.88
2023-05-25T12:08:36.622Z,16.91
2023-05-25T12:13:41.016Z,17.13
2023-05-25T12:18:43.443Z,17.40
2023-05-25T12:23:46.357Z,17.52
2023-05-25T12:29:10.286Z,17.71
2023-05-25T12:34:13.551Z,17.70
2023-05-25T12:39:31.744Z,17.76
2023-05-25T12:44:36.047Z,17.75
2023-05-25T12:49:39.057Z,17.76
2023-05-25T12:54:46.140Z,17.62
2023-05-25T12:59:56.429Z,17.56
2023-05-25T13:04:58.878Z,17.57
2023-05-25T13:10:00.924Z,17.60
2023-05-25T13:15:09.858Z,17.53
2023-05-25T13:20:16.235Z,17.56
2023-05-25T13:25:20.936Z,17.56
2023-05-25T13:30:23.684Z,17.61
2023-05-25T13:35:41.863Z,17.64
2023-05-25T13:40:45.485Z,17.64
2023-05-25T13:45:48.086Z,17.75
2023-05-25T13:50:50.571Z,17.81
2023-05-25T13:55:52.596Z,17.70
2023-05-25T14:00:54.607Z,17.56
2023-05-25T14:05:57.019Z,17.42
2023-05-25T14:10:59.029Z,17.40
2023-05-25T14:16:01.191Z,17.37
2023-05-25T14:21:03.627Z,17.36
2023-05-25T14:26:05.761Z,17.35
2023-05-25T14:31:07.897Z,17.44
2023-05-25T14:36:11.134Z,17.58
2023-05-25T14:41:13.166Z,17.77
2023-05-25T14:46:18.364Z,17.80
2023-05-25T14:51:20.462Z,17.73
2023-05-25T14:56:23.667Z,17.67
2023-05-25T15:01:29.953Z,17.61
2023-05-25T15:06:34.694Z,17.49
2023-05-25T15:11:36.991Z,17.40
2023-05-25T15:16:39.067Z,17.37
2023-05-25T15:21:41.216Z,17.46
2023-05-25T15:26:43.852Z,17.51
2023-05-25T15:31:46.245Z,17.53
2023-05-25T15:36:50.453Z,17.59
2023-05-25T15:41:52.246Z,17.60
2023-05-25T15:46:54.258Z,17.53
2023-05-25T15:51:56.225Z,17.50
2023-05-25T15:56:58.071Z,17.42
2023-05-25T16:02:00.248Z,17.43
2023-05-25T16:07:04.332Z,17.47
2023-05-25T16:12:07.261Z,17.68
2023-05-25T16:17:09.201Z,17.85
2023-05-25T16:22:11.157Z,17.96
2023-05-25T16:27:13.324Z,18.02
2023-05-25T16:32:15.520Z,17.94
2023-05-25T16:37:17.780Z,17.88
2023-05-25T16:42:19.941Z,17.91
2023-05-25T16:47:22.732Z,17.97
2023-05-25T16:52:24.714Z,17.85
2023-05-25T16:57:27.493Z,17.73
2023-05-25T17:02:29.637Z,17.62
2023-05-25T17:07:33.353Z,17.53
2023-05-25T17:12:35.555Z,17.39
2023-05-25T17:17:37.617Z,17.35
2023-05-25T17:22:39.764Z,17.32
2023-05-25T17:27:41.817Z,17.34
2023-05-25T17:32:43.811Z,17.34
2023-05-25T17:37:45.721Z,17.25
2023-05-25T17:42:47.672Z,17.17
2023-05-25T17:47:50.181Z,17.14
2023-05-25T17:52:52.289Z,17.14
2023-05-25T17:57:54.351Z,17.13
2023-05-25T18:02:56.544Z,17.10
2023-05-25T18:07:58.772Z,17.06
2023-05-25T18:13:01.015Z,17.04
2023-05-25T18:18:05.720Z,17.01
2023-05-25T18:23:08.369Z,16.93
2023-05-25T18:28:12.326Z,16.83
2023-05-25T18:33:14.518Z,16.76
2023-05-25T18:38:16.449Z,16.70
2023-05-25T18:43:18.584Z,16.62
2023-05-25T18:48:21.215Z,16.56
2023-05-25T18:53:23.190Z,16.49
2023-05-25T18:58:25.041Z,16.42
2023-05-25T19:03:27.591Z,16.38
2023-05-25T19:08:29.711Z,16.33
2023-05-25T19:13:31.667Z,16.28
2023-05-25T19:18:33.370Z,16.24
2023-05-25T19:23:35.404Z,16.19
2023-05-25T19:28:37.401Z,16.13
2023-05-25T19:33:39.263Z,16.07
2023-05-25T19:38:42.366Z,16.04
2023-05-25T19:43:44.507Z,16.01
2023-05-25T19:48:46.369Z,15.98
2023-05-25T19:53:49.102Z,15.93
2023-05-25T19:58:51.107Z,15.89
2023-05-25T20:03:56.033Z,15.83
2023-05-25T20:08:58.553Z,15.82
2023-05-25T20:14:03.335Z,15.77
2023-05-25T20:19:11.069Z,15.72
2023-05-25T20:24:22.234Z,15.66
2023-05-25T20:29:27.488Z,15.59
2023-05-25T20:34:34.122Z,15.53
2023-05-25T20:39:36.575Z,15.47
2023-05-25T20:44:42.134Z,15.47
2023-05-25T20:49:44.263Z,15.49
2023-05-25T20:54:48.795Z,15.47
2023-05-25T20:59:54.397Z,15.49
2023-05-25T21:05:05.253Z,15.47
2023-05-25T21:10:15.716Z,15.45
2023-05-25T21:15:32.678Z,15.43
2023-05-25T21:20:39.895Z,15.42
2023-05-25T21:25:42.321Z,15.41
2023-05-25T21:30:49.824Z,15.40
2023-05-25T21:36:02.579Z,15.38
2023-05-25T21:41:15.458Z,15.39
2023-05-25T21:46:21.243Z,15.41
2023-05-25T21:51:34.436Z,15.41
2023-05-25T21:56:52.105Z,15.41
2023-05-25T22:02:14.859Z,15.37
2023-05-25T22:07:30.792Z,15.34
2023-05-25T22:12:36.651Z,15.33
2023-05-25T22:17:41.687Z,15.30
2023-05-25T22:23:04.612Z,15.28
2023-05-25T22:28:10.813Z,15.23
2023-05-25T22:33:17.904Z,15.20
2023-05-25T22:38:25.443Z,15.15
2023-05-25T22:43:55.624Z,15.11
2023-05-25T22:49:06.410Z,15.07
2023-05-25T22:54:36.788Z,15.08
2023-05-25T22:59:51.224Z,15.10
2023-05-25T23:05:09.753Z,15.14
2023-05-25T23:10:27.005Z,15.14
2023-05-25T23:15:44.313Z,15.14
2023-05-25T23:20:59.977Z,15.16
2023-05-25T23:26:22.158Z,15.18
2023-05-25T23:31:41.040Z,15.17
2023-05-25T23:36:49.277Z,15.14
2023-05-25T23:42:10.297Z,15.08
2023-05-25T23:47:16.371Z,15.07
2023-05-25T23:52:48.846Z,15.09
2023-05-25T23:58:36.157Z,15.10
